Time;durP1;ratioP1;P1;durP2;ratioP2;P2;SDS_P1;SDS_P2;PMS_P1;PMS_P2;Temp;Humidity;BMP_temperature;BMP_pressure;BME280_temperature;BME280_humidity;BME280_pressure;Samples;Min_cycle;Max_cycle;Signal;HPM_P1;HPM_P2
2021/07/10 00:00:13;;;;;;;3.80;3.10;;;24.10;99.90;;;;;;5107734;28;20532;-74
2021/07/10 00:02:42;;;;;;;4.65;3.28;;;24.00;99.90;;;;;;5112675;28;20026;-75
2021/07/10 00:05:10;;;;;;;6.78;3.70;;;24.20;99.90;;;;;;5112751;28;20110;-75
2021/07/10 00:07:36;;;;;;;7.82;2.72;;;24.30;99.90;;;;;;5107417;28;20039;-74
2021/07/10 00:10:06;;;;;;;5.53;3.47;;;24.40;99.90;;;;;;5112439;28;20027;-74
2021/07/10 00:12:40;;;;;;;5.78;3.35;;;24.30;99.90;;;;;;5106797;28;20023;-74
2021/07/10 00:15:08;;;;;;;3.65;2.83;;;24.20;99.90;;;;;;5104600;28;20028;-74
2021/07/10 00:17:33;;;;;;;4.32;2.95;;;24.20;99.90;;;;;;5100635;28;20092;-75
2021/07/10 00:19:59;;;;;;;3.55;3.20;;;24.20;99.90;;;;;;5105187;28;20485;-75
2021/07/10 00:22:25;;;;;;;4.63;3.55;;;24.00;99.90;;;;;;5108808;28;20053;-75
2021/07/10 00:24:51;;;;;;;6.60;3.08;;;24.00;99.90;;;;;;5106421;28;20113;-74
2021/07/10 00:27:17;;;;;;;4.13;3.20;;;23.90;99.90;;;;;;5104736;28;20449;-75
2021/07/10 00:29:42;;;;;;;8.38;3.95;;;24.00;99.90;;;;;;5109012;28;20040;-76
2021/07/10 00:32:08;;;;;;;4.95;3.42;;;24.00;99.90;;;;;;5111153;28;20047;-76
2021/07/10 00:34:36;;;;;;;6.60;3.25;;;24.00;99.90;;;;;;5105198;28;20045;-75
2021/07/10 00:37:02;;;;;;;4.45;3.33;;;24.10;99.90;;;;;;5104815;28;20284;-74
2021/07/10 00:39:28;;;;;;;6.50;3.88;;;24.20;99.90;;;;;;5096333;28;20028;-75
2021/07/10 00:41:54;;;;;;;5.68;3.65;;;24.20;99.90;;;;;;5105298;28;20028;-76
2021/07/10 00:44:19;;;;;;;4.75;3.20;;;24.10;99.90;;;;;;5103305;28;20034;-75
2021/07/10 00:46:45;;;;;;;5.60;3.67;;;24.20;99.90;;;;;;5100949;28;20036;-74
2021/07/10 00:49:12;;;;;;;4.72;3.10;;;24.20;99.90;;;;;;5109636;28;20020;-74
2021/07/10 00:51:38;;;;;;;5.18;2.97;;;24.20;99.90;;;;;;5110718;28;20091;-74
2021/07/10 00:54:04;;;;;;;6.45;3.25;;;24.20;99.90;;;;;;5104354;28;20160;-74
2021/07/10 00:56:29;;;;;;;4.25;3.05;;;24.10;99.90;;;;;;5109556;28;20058;-75
2021/07/10 00:58:55;;;;;;;4.55;3.30;;;24.00;99.90;;;;;;5107448;28;20028;-75
2021/07/10 01:01:21;;;;;;;5.35;3.47;;;24.10;99.90;;;;;;5100768;28;20028;-77
2021/07/10 01:03:47;;;;;;;7.10;3.55;;;24.10;99.90;;;;;;5110122;28;20023;-73
2021/07/10 01:06:14;;;;;;;6.47;2.97;;;24.20;99.90;;;;;;5110608;28;20016;-74
2021/07/10 01:08:41;;;;;;;11.70;3.13;;;24.40;99.90;;;;;;5103228;28;20035;-76
2021/07/10 01:11:09;;;;;;;6.13;2.50;;;24.40;99.90;;;;;;5109933;28;20076;-73
2021/07/10 01:13:35;;;;;;;3.30;3.00;;;24.50;99.90;;;;;;5101787;28;20011;-75
2021/07/10 01:16:02;;;;;;;4.80;2.65;;;24.60;99.90;;;;;;5106384;28;20023;-74
2021/07/10 01:18:30;;;;;;;3.20;2.20;;;24.80;99.90;;;;;;5059017;28;1285846;-75
2021/07/10 01:20:58;;;;;;;2.75;2.47;;;24.80;99.90;;;;;;5109404;28;20038;-74
2021/07/10 01:23:25;;;;;;;9.48;3.28;;;24.80;99.90;;;;;;5106508;28;20493;-75
2021/07/10 01:25:51;;;;;;;11.93;3.15;;;25.10;99.90;;;;;;5111253;28;20528;-74
2021/07/10 01:28:19;;;;;;;6.82;2.65;;;25.20;99.90;;;;;;5107606;28;20096;-75
2021/07/10 01:30:46;;;;;;;5.25;2.22;;;25.20;99.90;;;;;;5110987;28;20024;-74
2021/07/10 01:33:13;;;;;;;7.55;2.72;;;25.20;99.90;;;;;;5105746;28;20023;-74
2021/07/10 01:35:39;;;;;;;4.75;2.45;;;25.20;99.90;;;;;;5106693;28;20019;-75
2021/07/10 01:38:11;;;;;;;3.17;2.65;;;25.20;99.90;;;;;;5104666;28;20024;-75
2021/07/10 01:40:37;;;;;;;6.53;2.35;;;25.20;99.90;;;;;;5103130;28;20027;-74
2021/07/10 01:43:05;;;;;;;6.10;2.38;;;25.20;99.90;;;;;;5102316;28;20038;-74
2021/07/10 01:45:40;;;;;;;2.60;2.40;;;25.20;99.90;;;;;;5101833;28;20030;-74
2021/07/10 01:48:10;;;;;;;5.47;2.33;;;25.20;99.90;;;;;;5097820;28;20035;-75
2021/07/10 01:50:36;;;;;;;2.42;2.22;;;25.20;99.90;;;;;;5104177;28;20019;-75
2021/07/10 01:53:07;;;;;;;3.25;2.22;;;25.20;99.90;;;;;;5109169;28;20124;-74
2021/07/10 01:55:33;;;;;;;;;;;25.20;99.90;;;;;;5109188;28;20023;-75
2021/07/10 01:58:02;;;;;;;3.17;2.13;;;25.10;99.90;;;;;;5111369;28;19915;-76
2021/07/10 02:00:32;;;;;;;2.20;2.05;;;25.20;99.90;;;;;;5111633;28;20104;-74
2021/07/10 02:02:58;;;;;;;6.07;2.15;;;25.20;99.90;;;;;;5107219;28;20028;-74
2021/07/10 02:05:29;;;;;;;3.85;1.90;;;25.20;99.90;;;;;;5098383;28;20027;-75
2021/07/10 02:07:58;;;;;;;6.43;1.80;;;25.20;99.90;;;;;;5107889;28;20103;-74
2021/07/10 02:10:25;;;;;;;4.32;1.77;;;25.10;99.90;;;;;;5097145;28;20523;-74
2021/07/10 02:12:54;;;;;;;2.90;1.80;;;25.20;99.90;;;;;;5104332;28;20043;-74
2021/07/10 02:15:20;;;;;;;9.23;1.90;;;25.20;99.90;;;;;;5106230;28;20016;-74
2021/07/10 02:17:47;;;;;;;4.18;2.35;;;25.20;99.90;;;;;;5106604;28;20084;-75
2021/07/10 02:20:15;;;;;;;6.00;2.40;;;25.10;99.90;;;;;;5106006;28;20099;-75
2021/07/10 02:22:42;;;;;;;2.20;1.73;;;25.10;99.90;;;;;;5105314;28;20028;-75
2021/07/10 02:25:10;;;;;;;3.05;1.98;;;25.10;99.90;;;;;;5108297;28;20111;-74
2021/07/10 02:27:36;;;;;;;7.32;1.63;;;25.10;99.90;;;;;;5104815;28;20035;-73
2021/07/10 02:30:06;;;;;;;3.08;1.83;;;25.00;99.90;;;;;;5107853;28;20034;-74
2021/07/10 02:32:32;;;;;;;5.60;1.65;;;25.00;99.90;;;;;;5111510;28;20042;-74
2021/07/10 02:35:02;;;;;;;6.38;1.52;;;25.00;99.90;;;;;;5110094;28;20020;-74
2021/07/10 02:37:28;;;;;;;3.22;1.27;;;25.00;99.90;;;;;;5107836;28;20031;-73
2021/07/10 02:39:54;;;;;;;2.90;1.95;;;25.00;99.90;;;;;;5095979;28;20031;-73
2021/07/10 02:42:20;;;;;;;3.03;1.50;;;25.00;99.90;;;;;;5101070;28;20110;-74
2021/07/10 02:44:46;;;;;;;2.97;1.75;;;24.90;99.90;;;;;;5092624;28;20115;-75
2021/07/10 02:47:11;;;;;;;5.03;1.58;;;24.80;99.90;;;;;;5102411;28;20027;-76
2021/07/10 02:49:40;;;;;;;2.65;1.60;;;24.80;99.90;;;;;;5111181;28;20043;-75
2021/07/10 02:52:08;;;;;;;4.13;1.52;;;24.80;99.90;;;;;;5104310;27;20043;-74
2021/07/10 02:54:38;;;;;;;2.65;2.03;;;24.80;99.90;;;;;;5106471;28;20011;-74
2021/07/10 02:57:04;;;;;;;2.22;1.65;;;24.80;99.90;;;;;;5106701;28;20028;-75
2021/07/10 02:59:30;;;;;;;3.75;1.50;;;24.80;99.90;;;;;;5109281;28;20038;-75
2021/07/10 03:01:56;;;;;;;3.55;1.92;;;24.70;99.90;;;;;;5108219;28;20057;-74
2021/07/10 03:04:22;;;;;;;2.45;2.22;;;24.60;99.90;;;;;;5108868;28;20031;-77
2021/07/10 03:06:50;;;;;;;3.42;1.80;;;24.60;99.90;;;;;;5104968;28;20598;-74
2021/07/10 03:09:18;;;;;;;2.53;1.52;;;24.50;99.90;;;;;;5098381;28;20024;-73
2021/07/10 03:11:48;;;;;;;3.70;1.77;;;24.40;99.90;;;;;;5100434;28;20023;-73
2021/07/10 03:14:17;;;;;;;2.35;2.15;;;24.40;99.90;;;;;;5097899;28;20044;-74
2021/07/10 03:16:43;;;;;;;2.38;1.88;;;24.40;99.90;;;;;;5102254;28;20082;-74
2021/07/10 03:19:09;;;;;;;2.78;1.58;;;24.40;99.90;;;;;;5104857;28;20106;-75
2021/07/10 03:21:37;;;;;;;6.72;2.25;;;24.40;99.90;;;;;;5088449;28;20558;-74
2021/07/10 03:24:03;;;;;;;1.92;1.83;;;24.40;99.90;;;;;;5100636;28;20027;-74
2021/07/10 03:26:29;;;;;;;2.35;1.50;;;24.40;99.90;;;;;;5101675;28;21294;-74
2021/07/10 03:28:57;;;;;;;3.97;1.90;;;24.30;99.90;;;;;;5105556;28;20103;-74
2021/07/10 03:31:22;;;;;;;4.82;1.92;;;24.20;99.90;;;;;;5104871;28;20031;-74
2021/07/10 03:33:48;;;;;;;4.70;2.42;;;24.30;99.90;;;;;;5105685;28;20032;-74
2021/07/10 03:36:14;;;;;;;4.55;2.05;;;24.30;99.90;;;;;;5098363;28;20445;-75
2021/07/10 03:38:44;;;;;;;2.63;2.20;;;24.20;99.90;;;;;;5096639;28;20090;-73
2021/07/10 03:41:10;;;;;;;3.90;1.77;;;24.30;99.90;;;;;;5103238;28;20420;-74
2021/07/10 03:43:36;;;;;;;4.82;2.22;;;24.20;99.90;;;;;;5099727;28;20469;-74
2021/07/10 03:46:06;;;;;;;3.03;2.08;;;24.20;99.90;;;;;;5096762;28;20032;-73
2021/07/10 03:48:32;;;;;;;5.63;2.33;;;24.20;99.90;;;;;;5098053;28;20117;-75
2021/07/10 03:50:58;;;;;;;3.28;2.20;;;24.20;99.90;;;;;;5104603;28;20031;-73
2021/07/10 03:53:25;;;;;;;1.80;1.70;;;24.20;99.90;;;;;;5096345;28;20030;-74
2021/07/10 03:55:51;;;;;;;1.90;1.80;;;24.20;99.90;;;;;;5102048;28;20354;-73
2021/07/10 03:58:16;;;;;;;3.28;1.77;;;24.40;99.90;;;;;;5106193;28;20035;-73
2021/07/10 04:00:42;;;;;;;1.73;1.48;;;24.30;99.90;;;;;;5108001;28;20028;-75
2021/07/10 04:03:08;;;;;;;2.92;1.98;;;24.40;99.90;;;;;;5096070;28;20068;-74
2021/07/10 04:05:34;;;;;;;3.40;1.38;;;24.40;99.90;;;;;;5106896;28;20023;-74
2021/07/10 04:08:03;;;;;;;1.67;1.58;;;24.40;99.90;;;;;;5101760;28;20039;-75
2021/07/10 04:10:29;;;;;;;2.28;1.60;;;24.30;99.90;;;;;;5106124;28;20063;-75
2021/07/10 04:12:55;;;;;;;3.03;1.88;;;24.30;99.90;;;;;;5108973;28;20055;-75
2021/07/10 04:15:21;;;;;;;5.40;1.70;;;24.40;99.90;;;;;;5103901;28;20050;-74
2021/07/10 04:17:47;;;;;;;7.85;1.90;;;24.60;99.90;;;;;;5108770;28;20105;-75
2021/07/10 04:20:15;;;;;;;1.65;1.55;;;24.70;99.90;;;;;;5108689;28;20031;-73
2021/07/10 04:22:42;;;;;;;4.40;1.45;;;24.70;99.90;;;;;;5106114;28;20028;-72
2021/07/10 04:25:16;;;;;;;2.90;1.70;;;24.70;99.90;;;;;;5113814;28;20160;-74
2021/07/10 04:27:44;;;;;;;1.80;1.58;;;24.80;99.90;;;;;;5100848;28;20038;-75
2021/07/10 04:30:14;;;;;;;2.85;1.30;;;24.80;99.90;;;;;;5111013;28;20031;-74
2021/07/10 04:32:41;;;;;;;6.28;1.88;;;24.80;99.90;;;;;;5108641;28;20027;-73
2021/07/10 04:35:08;;;;;;;5.63;1.15;;;24.80;99.90;;;;;;5095685;28;20031;-75
2021/07/10 04:37:34;;;;;;;2.08;1.40;;;24.70;99.90;;;;;;5112233;28;20131;-74
2021/07/10 04:40:00;;;;;;;4.30;1.60;;;24.80;99.90;;;;;;5107358;28;20111;-75
2021/07/10 04:42:26;;;;;;;1.00;0.98;;;24.90;99.90;;;;;;5107105;28;20024;-75
2021/07/10 04:44:52;;;;;;;2.97;2.10;;;25.00;99.90;;;;;;5099975;28;20027;-74
2021/07/10 04:47:19;;;;;;;2.28;1.20;;;25.10;99.90;;;;;;5100770;28;20610;-73
2021/07/10 04:49:52;;;;;;;1.77;1.30;;;25.20;99.90;;;;;;5107380;28;20030;-73
2021/07/10 04:52:20;;;;;;;3.95;1.38;;;25.20;99.90;;;;;;5104038;28;20070;-74
2021/07/10 04:54:46;;;;;;;1.25;1.15;;;25.30;99.90;;;;;;5110798;28;20023;-74
2021/07/10 04:57:12;;;;;;;1.83;0.93;;;25.30;99.90;;;;;;5107778;28;20106;-75
2021/07/10 04:59:38;;;;;;;2.10;1.10;;;25.30;99.90;;;;;;5109843;28;20036;-74
2021/07/10 05:02:04;;;;;;;1.98;0.80;;;25.30;99.90;;;;;;5101287;28;20024;-73
2021/07/10 05:04:30;;;;;;;1.85;0.90;;;25.30;99.90;;;;;;5107975;28;20597;-76
2021/07/10 05:06:56;;;;;;;3.92;1.15;;;25.30;99.90;;;;;;5108500;28;20032;-74
2021/07/10 05:09:23;;;;;;;4.97;1.75;;;25.30;99.90;;;;;;5109659;28;20015;-75
2021/07/10 05:11:49;;;;;;;1.65;0.80;;;25.30;99.90;;;;;;5105103;28;20437;-75
2021/07/10 05:14:16;;;;;;;5.22;1.50;;;25.40;99.90;;;;;;5107059;28;20174;-73
2021/07/10 05:16:42;;;;;;;1.35;1.25;;;25.40;99.90;;;;;;5106252;28;20027;-74
2021/07/10 05:19:08;;;;;;;3.15;0.88;;;25.40;99.90;;;;;;5107859;28;20660;-74
2021/07/10 05:21:34;;;;;;;3.00;1.30;;;25.40;99.90;;;;;;5111237;28;20028;-75
2021/07/10 05:24:00;;;;;;;7.35;2.28;;;25.40;99.90;;;;;;5101710;28;20138;-75
2021/07/10 05:26:27;;;;;;;3.20;0.90;;;25.50;99.90;;;;;;5098549;28;20056;-75
2021/07/10 05:28:52;;;;;;;1.30;1.20;;;25.50;99.90;;;;;;5129826;28;20048;-73
2021/07/10 05:31:18;;;;;;;1.60;1.50;;;25.50;99.90;;;;;;5125614;28;20386;-75
2021/07/10 05:33:44;;;;;;;1.23;1.00;;;25.50;99.90;;;;;;5117991;28;20051;-74
2021/07/10 05:36:10;;;;;;;0.85;0.85;;;25.50;99.90;;;;;;5104964;28;20386;-74
2021/07/10 05:38:38;;;;;;;1.90;0.90;;;25.50;99.90;;;;;;5109447;28;20051;-74
2021/07/10 05:41:07;;;;;;;1.08;0.90;;;25.50;99.90;;;;;;5111180;28;20035;-74
2021/07/10 05:43:33;;;;;;;1.67;0.90;;;25.50;99.90;;;;;;5107119;28;20049;-75
2021/07/10 05:45:59;;;;;;;1.52;1.42;;;25.60;99.90;;;;;;5109093;28;20031;-75
2021/07/10 05:48:25;;;;;;;3.33;1.10;;;25.60;99.90;;;;;;5103283;28;20035;-74
2021/07/10 05:50:50;;;;;;;4.35;1.20;;;25.70;99.90;;;;;;5109784;28;20024;-74
2021/07/10 05:53:16;;;;;;;5.28;1.15;;;25.70;99.90;;;;;;5108177;28;20026;-73
2021/07/10 05:55:42;;;;;;;1.02;0.80;;;25.70;99.90;;;;;;5109423;28;20028;-71
2021/07/10 05:58:08;;;;;;;2.70;1.00;;;25.80;99.90;;;;;;5108975;28;20023;-75
2021/07/10 06:00:34;;;;;;;1.10;1.00;;;25.80;99.90;;;;;;5109039;28;20077;-71
2021/07/10 06:03:00;;;;;;;5.35;1.70;;;25.90;99.90;;;;;;5109280;28;20023;-72
2021/07/10 06:05:28;;;;;;;5.03;1.10;;;25.90;99.90;;;;;;5107769;28;20493;-73
2021/07/10 06:07:55;;;;;;;3.45;1.27;;;25.90;99.90;;;;;;5111070;28;20038;-72
2021/07/10 06:10:21;;;;;;;4.88;1.38;;;26.00;99.90;;;;;;5108262;28;20663;-72
2021/07/10 06:12:47;;;;;;;0.93;0.88;;;26.00;99.90;;;;;;5107323;28;20397;-72
2021/07/10 06:15:14;;;;;;;1.85;0.95;;;26.00;99.90;;;;;;5105594;27;20028;-71
2021/07/10 06:17:41;;;;;;;3.05;1.08;;;26.00;99.90;;;;;;5108338;28;20451;-72
2021/07/10 06:20:09;;;;;;;0.82;0.82;;;26.00;99.90;;;;;;5107848;28;20193;-71
2021/07/10 06:22:35;;;;;;;1.92;0.80;;;25.90;99.90;;;;;;5107181;28;20065;-70
2021/07/10 06:25:02;;;;;;;1.27;0.88;;;26.00;99.90;;;;;;5100862;28;20035;-70
2021/07/10 06:27:28;;;;;;;2.83;1.10;;;26.00;99.90;;;;;;5106097;28;20131;-69
2021/07/10 06:29:56;;;;;;;3.70;1.23;;;26.00;99.90;;;;;;5110800;28;20047;-67
2021/07/10 06:32:22;;;;;;;0.90;0.90;;;26.00;99.90;;;;;;5104863;28;20054;-69
2021/07/10 06:34:48;;;;;;;1.05;0.93;;;26.10;99.90;;;;;;5105922;28;20047;-69
2021/07/10 06:37:13;;;;;;;1.38;0.85;;;26.10;99.90;;;;;;5112116;27;20490;-68
2021/07/10 06:39:39;;;;;;;2.88;0.98;;;26.20;99.90;;;;;;5108936;27;20084;-67
2021/07/10 06:42:05;;;;;;;3.50;1.10;;;26.20;99.90;;;;;;5102650;28;20063;-70
2021/07/10 06:44:31;;;;;;;6.90;1.23;;;26.20;99.90;;;;;;5106677;28;20032;-70
2021/07/10 06:46:57;;;;;;;0.95;0.82;;;26.30;99.90;;;;;;5110942;28;20023;-68
2021/07/10 06:49:23;;;;;;;1.02;0.93;;;26.50;99.90;;;;;;5109798;28;20031;-66
2021/07/10 06:51:49;;;;;;;3.95;0.70;;;26.50;99.90;;;;;;5098347;28;20058;-69
2021/07/10 06:54:15;;;;;;;2.58;0.90;;;26.50;99.90;;;;;;5097939;28;20031;-70
2021/07/10 06:56:41;;;;;;;2.50;0.70;;;26.50;99.90;;;;;;5105523;28;20036;-63
2021/07/10 06:59:08;;;;;;;0.70;0.70;;;26.60;99.90;;;;;;5096247;28;20024;-62
2021/07/10 07:01:33;;;;;;;2.53;1.08;;;26.60;99.90;;;;;;5104193;28;20024;-62
2021/07/10 07:03:59;;;;;;;2.60;0.90;;;26.70;99.90;;;;;;5094232;28;20019;-60
2021/07/10 07:06:25;;;;;;;4.80;1.02;;;26.60;99.90;;;;;;5111136;27;20016;-65
2021/07/10 07:08:51;;;;;;;5.10;1.05;;;26.60;99.90;;;;;;5105641;28;20115;-70
2021/07/10 07:11:17;;;;;;;0.95;0.80;;;26.70;99.90;;;;;;5107866;28;20024;-68
2021/07/10 07:13:45;;;;;;;0.70;0.57;;;26.60;99.90;;;;;;5103921;28;20031;-66
2021/07/10 07:16:10;;;;;;;4.00;1.17;;;26.70;99.90;;;;;;5110275;28;20027;-66
2021/07/10 07:18:36;;;;;;;5.22;0.80;;;26.80;99.90;;;;;;5107752;28;20031;-66
2021/07/10 07:21:02;;;;;;;4.03;1.13;;;26.70;99.90;;;;;;5108855;28;20024;-66
2021/07/10 07:23:28;;;;;;;0.90;0.47;;;26.70;99.90;;;;;;5107762;28;20052;-65
2021/07/10 07:25:56;;;;;;;1.33;0.60;;;26.70;99.90;;;;;;5108709;28;20062;-67
2021/07/10 07:28:22;;;;;;;0.57;0.57;;;26.80;99.90;;;;;;5110549;28;20116;-67
2021/07/10 07:30:50;;;;;;;1.75;0.73;;;26.80;99.90;;;;;;5109170;28;20061;-66
2021/07/10 07:33:21;;;;;;;1.02;0.80;;;27.00;99.90;;;;;;5108872;28;20562;-67
2021/07/10 07:35:47;;;;;;;3.40;0.60;;;27.10;99.90;;;;;;5105378;28;20031;-67
2021/07/10 07:38:13;;;;;;;1.55;0.63;;;27.20;99.90;;;;;;5110594;28;20032;-67
2021/07/10 07:40:39;;;;;;;1.30;0.80;;;27.10;99.90;;;;;;5106315;28;20150;-68
2021/07/10 07:43:04;;;;;;;3.05;0.98;;;27.10;99.90;;;;;;5101404;28;20114;-67
2021/07/10 07:45:30;;;;;;;5.32;1.02;;;27.20;99.90;;;;;;5098049;28;20024;-67
2021/07/10 07:47:56;;;;;;;0.95;0.90;;;27.20;99.90;;;;;;5100773;28;20031;-67
2021/07/10 07:50:24;;;;;;;5.90;1.00;;;27.20;99.90;;;;;;5105490;28;20026;-69
2021/07/10 07:52:50;;;;;;;3.88;3.38;;;27.20;99.90;;;;;;5109062;28;20422;-67
2021/07/10 07:55:17;;;;;;;5.75;1.13;;;27.20;99.90;;;;;;5098919;28;20077;-67
2021/07/10 07:57:45;;;;;;;4.85;1.25;;;27.30;99.90;;;;;;5096863;28;20046;-66
2021/07/10 08:00:15;;;;;;;1.40;0.65;;;27.50;99.90;;;;;;5112519;28;20032;-68
2021/07/10 08:02:47;;;;;;;3.55;1.05;;;27.40;99.90;;;;;;5107721;28;20024;-67
2021/07/10 08:05:14;;;;;;;2.75;1.05;;;27.50;99.90;;;;;;5105352;28;20046;-68
2021/07/10 08:07:40;;;;;;;4.75;1.67;;;27.70;99.90;;;;;;5112284;28;20027;-66
2021/07/10 08:10:08;;;;;;;4.07;1.02;;;27.80;99.90;;;;;;5102053;28;20032;-67
2021/07/10 08:12:34;;;;;;;8.18;1.30;;;27.80;99.90;;;;;;5106920;28;20028;-67
2021/07/10 08:15:03;;;;;;;2.42;0.85;;;27.80;99.90;;;;;;5111893;28;20073;-67
2021/07/10 08:17:29;;;;;;;0.73;0.73;;;27.80;99.90;;;;;;5107248;28;20031;-68
2021/07/10 08:19:58;;;;;;;1.63;0.70;;;27.80;99.90;;;;;;5109943;28;20497;-67
2021/07/10 08:22:24;;;;;;;2.60;1.88;;;27.80;99.90;;;;;;5110840;28;20023;-67
2021/07/10 08:24:50;;;;;;;1.65;1.55;;;27.80;99.90;;;;;;5103103;28;20028;-68
2021/07/10 08:27:15;;;;;;;8.13;1.50;;;27.80;99.90;;;;;;5105214;28;20027;-67
2021/07/10 08:29:42;;;;;;;1.20;1.00;;;28.00;99.90;;;;;;5103495;28;20783;-67
2021/07/10 08:32:09;;;;;;;1.33;0.85;;;28.20;99.90;;;;;;5112932;28;20107;-65
2021/07/10 08:34:34;;;;;;;0.70;0.70;;;28.30;99.90;;;;;;5107508;28;20016;-66
2021/07/10 08:37:02;;;;;;;2.00;1.40;;;28.30;99.90;;;;;;5110776;28;20023;-67
2021/07/10 08:39:28;;;;;;;0.80;0.77;;;28.30;99.90;;;;;;5106165;28;20016;-65
2021/07/10 08:41:54;;;;;;;3.67;1.60;;;28.40;99.90;;;;;;5111047;28;20028;-65
2021/07/10 08:44:23;;;;;;;5.50;0.90;;;28.30;99.90;;;;;;5107072;28;20427;-65
2021/07/10 08:46:51;;;;;;;2.13;1.42;;;28.10;99.90;;;;;;5093231;28;20719;-66
2021/07/10 08:49:18;;;;;;;2.78;1.30;;;28.10;99.90;;;;;;5090066;28;20020;-66
2021/07/10 08:51:46;;;;;;;4.68;0.88;;;28.00;99.90;;;;;;5108413;28;20073;-66
2021/07/10 08:54:16;;;;;;;6.13;1.00;;;28.00;99.90;;;;;;5103933;28;20020;-66
2021/07/10 08:56:43;;;;;;;3.30;1.10;;;28.10;99.90;;;;;;5107356;28;20052;-67
2021/07/10 08:59:10;;;;;;;2.72;1.30;;;28.00;99.90;;;;;;5110773;28;20020;-66
2021/07/10 09:01:36;;;;;;;3.25;0.70;;;28.10;99.90;;;;;;5110925;28;20016;-66
2021/07/10 09:04:02;;;;;;;1.83;1.05;;;28.30;99.90;;;;;;5112605;28;20063;-67
2021/07/10 09:06:28;;;;;;;5.95;1.00;;;28.40;99.90;;;;;;5096521;28;20027;-67
2021/07/10 09:08:56;;;;;;;1.40;0.82;;;28.50;99.90;;;;;;5092826;28;20047;-66
2021/07/10 09:11:23;;;;;;;0.75;0.75;;;28.50;99.90;;;;;;5106955;28;20027;-66
2021/07/10 09:13:54;;;;;;;0.85;0.85;;;28.20;99.90;;;;;;5106864;28;20464;-66
2021/07/10 09:16:27;;;;;;;5.68;0.73;;;28.30;99.90;;;;;;5094765;28;20072;-66
2021/07/10 09:18:59;;;;;;;1.13;0.93;;;28.20;99.90;;;;;;5110401;28;20036;-67
2021/07/10 09:21:43;;;;;;;9.02;1.70;;;28.10;99.90;;;;;;5111824;27;20130;-66
2021/07/10 09:24:16;;;;;;;7.55;0.98;;;28.20;99.90;;;;;;5103411;28;20023;-66
2021/07/10 09:26:50;;;;;;;1.92;1.60;;;28.10;99.90;;;;;;5106144;28;20122;-67
2021/07/10 09:29:20;;;;;;;2.03;1.20;;;28.40;99.90;;;;;;5104629;28;20024;-66
2021/07/10 09:31:54;;;;;;;1.42;0.98;;;28.50;99.90;;;;;;5110797;28;20119;-66
2021/07/10 09:34:26;;;;;;;4.18;1.02;;;28.60;99.90;;;;;;5103823;28;20107;-67
2021/07/10 09:36:55;;;;;;;1.65;1.52;;;28.80;99.90;;;;;;5103366;28;20030;-66
2021/07/10 09:39:23;;;;;;;2.17;2.03;;;28.70;99.90;;;;;;5110811;28;20499;-66
2021/07/10 09:41:49;;;;;;;2.88;1.30;;;28.70;99.90;;;;;;5111843;28;20452;-65
2021/07/10 09:44:16;;;;;;;1.40;1.30;;;28.70;99.90;;;;;;5102375;28;20028;-66
2021/07/10 09:46:43;;;;;;;1.90;1.13;;;28.70;99.90;;;;;;5111918;28;20086;-66
2021/07/10 09:49:29;;;;;;;1.35;1.00;;;28.90;99.90;;;;;;5100214;28;20504;-66
2021/07/10 09:52:06;;;;;;;2.45;1.08;;;28.90;99.90;;;;;;5109699;28;20119;-66
2021/07/10 09:54:42;;;;;;;3.42;1.02;;;28.70;99.90;;;;;;5104609;28;21937;-66
2021/07/10 09:57:16;;;;;;;2.83;1.58;;;28.80;99.90;;;;;;5111491;28;20103;-66
2021/07/10 09:59:50;;;;;;;1.45;1.35;;;28.80;99.90;;;;;;5103604;28;20409;-66
2021/07/10 10:02:21;;;;;;;3.22;1.30;;;28.90;99.90;;;;;;5111662;28;20441;-66
2021/07/10 10:04:47;;;;;;;1.92;1.40;;;28.90;99.90;;;;;;5110780;28;20102;-66
2021/07/10 10:07:20;;;;;;;2.17;1.30;;;29.00;99.90;;;;;;5110929;28;20182;-66
2021/07/10 10:09:56;;;;;;;1.08;1.08;;;29.20;99.90;;;;;;5109021;28;20489;-66
2021/07/10 10:12:22;;;;;;;2.05;1.10;;;29.20;99.90;;;;;;5111120;28;20068;-66
2021/07/10 10:14:52;;;;;;;1.30;1.20;;;29.10;99.90;;;;;;5110522;28;20552;-66
2021/07/10 10:17:23;;;;;;;1.35;1.10;;;29.20;99.90;;;;;;5109212;28;20027;-66
2021/07/10 10:19:49;;;;;;;1.23;0.90;;;29.30;99.90;;;;;;5112284;27;20442;-66
2021/07/10 10:22:16;;;;;;;2.00;0.90;;;29.40;99.90;;;;;;5102301;28;20031;-67
2021/07/10 10:24:48;;;;;;;1.27;1.10;;;29.40;99.90;;;;;;5104166;28;20787;-70
2021/07/10 10:27:16;;;;;;;2.47;1.42;;;29.20;99.90;;;;;;5101693;28;20031;-67
2021/07/10 10:29:42;;;;;;;1.17;1.08;;;29.20;99.90;;;;;;5110441;27;20019;-67
2021/07/10 10:32:09;;;;;;;3.45;1.27;;;29.10;99.90;;;;;;5109801;28;20123;-66
2021/07/10 10:34:37;;;;;;;1.00;1.00;;;29.10;99.90;;;;;;5106136;28;20106;-66
2021/07/10 10:37:04;;;;;;;2.63;1.50;;;29.30;99.90;;;;;;5107706;28;20036;-67
2021/07/10 10:39:35;;;;;;;1.77;1.50;;;29.40;99.90;;;;;;5105048;28;20513;-66
2021/07/10 10:42:02;;;;;;;5.07;1.37;;;29.20;99.90;;;;;;5110190;28;20028;-67
2021/07/10 10:44:38;;;;;;;2.40;1.85;;;29.00;99.90;;;;;;5102988;28;20632;-67
2021/07/10 10:47:04;;;;;;;2.60;1.83;;;29.30;99.90;;;;;;5108934;28;20071;-66
2021/07/10 10:49:41;;;;;;;4.57;1.45;;;29.40;99.90;;;;;;5106475;28;20126;-66
2021/07/10 10:52:30;;;;;;;3.63;1.25;;;29.50;99.90;;;;;;5109420;28;20016;-67
2021/07/10 10:54:58;;;;;;;3.78;1.40;;;29.80;99.90;;;;;;5108934;28;20099;-66
2021/07/10 10:57:32;;;;;;;1.92;1.52;;;29.80;99.90;;;;;;5108138;28;20035;-67
2021/07/10 10:59:58;;;;;;;1.38;1.15;;;29.80;99.90;;;;;;5109285;28;20531;-66
2021/07/10 11:02:26;;;;;;;1.92;1.83;;;30.10;99.90;;;;;;5099780;28;20035;-66
2021/07/10 11:04:59;;;;;;;4.00;1.80;;;30.20;99.90;;;;;;5106101;28;20620;-66
2021/07/10 11:07:26;;;;;;;1.67;1.58;;;30.20;99.90;;;;;;5105789;28;20047;-67
2021/07/10 11:10:15;;;;;;;2.28;1.33;;;30.20;99.90;;;;;;5104672;28;20031;-66
2021/07/10 11:12:51;;;;;;;1.55;1.45;;;30.00;99.90;;;;;;5104992;28;20026;-68
2021/07/10 11:15:25;;;;;;;3.20;1.50;;;30.20;99.90;;;;;;5103132;28;20055;-67
2021/07/10 11:17:52;;;;;;;1.88;1.58;;;30.20;99.90;;;;;;5109287;28;20435;-67
2021/07/10 11:20:47;;;;;;;6.50;1.85;;;30.20;99.90;;;;;;5110524;28;20027;-69
2021/07/10 11:23:32;;;;;;;2.33;1.67;;;30.30;99.90;;;;;;5109661;28;20030;-67
2021/07/10 11:26:00;;;;;;;1.88;1.67;;;30.30;99.90;;;;;;5110808;28;20027;-68
2021/07/10 11:28:49;;;;;;;2.40;2.10;;;30.40;99.90;;;;;;5107167;27;20028;-67
2021/07/10 11:31:20;;;;;;;2.08;1.88;;;30.40;99.90;;;;;;5105803;28;20114;-67
2021/07/10 11:34:05;;;;;;;2.42;1.77;;;30.30;99.90;;;;;;5112790;28;20048;-68
2021/07/10 11:36:31;;;;;;;3.92;1.65;;;30.30;99.90;;;;;;5112675;28;20517;-68
2021/07/10 11:38:58;;;;;;;4.32;1.83;;;30.20;99.90;;;;;;5110131;28;20035;-68
2021/07/10 11:41:33;;;;;;;3.70;2.22;;;29.90;99.90;;;;;;5112444;28;20032;-67
2021/07/10 11:44:23;;;;;;;5.63;1.67;;;30.10;99.90;;;;;;5113121;28;20024;-67
2021/07/10 11:47:01;;;;;;;2.15;1.95;;;30.30;99.90;;;;;;5111389;28;20516;-68
2021/07/10 11:49:46;;;;;;;6.03;2.53;;;30.30;99.90;;;;;;5097406;28;20020;-67
2021/07/10 11:52:16;;;;;;;3.63;3.03;;;30.40;99.90;;;;;;5105365;28;20035;-69
2021/07/10 11:54:48;;;;;;;4.82;2.22;;;30.50;99.90;;;;;;5113094;28;20028;-69
2021/07/10 11:57:18;;;;;;;3.97;2.72;;;30.60;99.90;;;;;;5105218;28;20024;-68
2021/07/10 11:59:43;;;;;;;2.20;2.10;;;30.60;99.90;;;;;;5112590;28;20031;-68
2021/07/10 12:02:27;;;;;;;6.07;2.47;;;30.60;99.90;;;;;;5107150;28;20031;-68
2021/07/10 12:05:12;;;;;;;6.88;2.42;;;30.60;99.90;;;;;;5111272;28;20035;-67
2021/07/10 12:07:48;;;;;;;2.70;2.03;;;30.80;99.90;;;;;;5109610;28;20110;-67
2021/07/10 12:10:41;;;;;;;2.13;1.92;;;30.60;99.90;;;;;;5112465;28;20015;-68
2021/07/10 12:13:13;;;;;;;4.38;2.92;;;30.40;99.90;;;;;;5101149;28;20053;-68
2021/07/10 12:15:42;;;;;;;4.00;2.63;;;30.40;99.90;;;;;;5108377;28;20544;-68
2021/07/10 12:18:10;;;;;;;2.58;2.20;;;30.60;99.90;;;;;;5111111;28;20114;-67
2021/07/10 12:20:44;;;;;;;8.73;3.15;;;30.80;99.90;;;;;;5113105;28;20023;-68
2021/07/10 12:23:18;;;;;;;4.93;3.80;;;31.10;99.90;;;;;;5112335;28;20030;-67
2021/07/10 12:25:48;;;;;;;3.92;3.30;;;31.40;99.90;;;;;;5110014;28;20031;-68
2021/07/10 12:28:15;;;;;;;6.60;3.38;;;31.10;99.90;;;;;;5108564;28;20060;-69
2021/07/10 12:30:49;;;;;;;4.00;3.70;;;31.10;99.90;;;;;;5102814;28;20115;-68
2021/07/10 12:33:32;;;;;;;5.32;2.60;;;31.20;99.90;;;;;;5108986;28;20385;-67
2021/07/10 12:36:07;;;;;;;3.38;3.08;;;30.90;99.90;;;;;;5102305;28;20053;-68
2021/07/10 12:38:35;;;;;;;6.47;3.00;;;30.90;99.90;;;;;;5109869;28;20032;-69
2021/07/10 12:41:20;;;;;;;3.88;3.08;;;30.60;99.90;;;;;;5109206;28;20023;-68
2021/07/10 12:43:46;;;;;;;5.57;3.72;;;30.70;99.90;;;;;;5102458;28;20028;-68
2021/07/10 12:46:12;;;;;;;4.13;3.30;;;30.80;99.90;;;;;;5115926;28;20421;-69
2021/07/10 12:48:38;;;;;;;4.15;2.92;;;31.10;99.90;;;;;;5113582;27;20481;-68
2021/07/10 12:51:04;;;;;;;4.97;3.00;;;31.20;99.90;;;;;;5114382;27;20039;-67
2021/07/10 12:53:36;;;;;;;5.30;3.05;;;31.00;99.90;;;;;;5106048;27;20152;-67